createdAt,value
2018-06-05T00:00:09.228Z,24.20
2018-06-05T00:02:38.197Z,24.20
2018-06-05T00:05:07.213Z,24.20
2018-06-05T00:07:36.192Z,24.20
2018-06-05T00:10:05.194Z,24.10
2018-06-05T00:12:34.182Z,24.10
2018-06-05T00:15:03.153Z,24.10
2018-06-05T00:17:32.129Z,24.20
2018-06-05T00:20:01.101Z,24.20
2018-06-05T00:22:30.058Z,24.10
2018-06-05T00:24:59.072Z,24.10
2018-06-05T00:29:56.748Z,24.20
2018-06-05T00:32:25.726Z,24.10
2018-06-05T00:34:54.749Z,24.10
2018-06-05T00:37:23.776Z,24.10
2018-06-05T00:39:52.917Z,24.10
2018-06-05T00:44:50.602Z,24.10
2018-06-05T00:47:19.576Z,24.10
2018-06-05T00:49:48.748Z,24.10
2018-06-05T00:52:17.721Z,24.10
2018-06-05T00:54:46.706Z,24.10
2018-06-05T00:57:15.705Z,24.10
2018-06-05T00:59:44.676Z,24.10
2018-06-05T01:02:13.665Z,24.10
2018-06-05T01:07:11.302Z,24.10
2018-06-05T01:09:40.265Z,24.10
2018-06-05T01:14:37.925Z,24.10
2018-06-05T01:17:06.929Z,24.10
2018-06-05T01:19:35.909Z,24.10
2018-06-05T01:22:04.873Z,24.00
2018-06-05T01:24:33.852Z,24.10
2018-06-05T01:27:02.830Z,24.10
2018-06-05T01:29:31.822Z,24.10
2018-06-05T01:34:29.469Z,24.10
2018-06-05T01:36:58.437Z,24.00
2018-06-05T01:39:27.608Z,24.10
2018-06-05T01:44:25.301Z,24.00
2018-06-05T01:46:54.305Z,24.00
2018-06-05T01:49:23.420Z,24.00
2018-06-05T01:51:52.389Z,24.00
2018-06-05T01:54:21.365Z,24.00
2018-06-05T01:56:50.394Z,24.00
2018-06-05T01:59:19.357Z,24.00
2018-06-05T02:01:48.326Z,24.00
2018-06-05T02:04:17.296Z,24.00
2018-06-05T02:06:46.261Z,24.00
2018-06-05T02:09:15.249Z,24.00
2018-06-05T02:11:44.217Z,24.00
2018-06-05T02:14:13.328Z,24.00
2018-06-05T02:19:11.000Z,24.00
2018-06-05T02:21:39.991Z,24.00
2018-06-05T02:24:08.993Z,24.00
2018-06-05T02:29:06.850Z,24.00
2018-06-05T02:31:36.062Z,24.00
2018-06-05T02:34:05.062Z,24.00
2018-06-05T02:36:34.044Z,24.00
2018-06-05T02:39:03.073Z,24.00
2018-06-05T02:41:32.073Z,24.00
2018-06-05T02:44:01.045Z,24.00
2018-06-05T02:46:30.055Z,24.00
2018-06-05T02:48:59.070Z,24.00
2018-06-05T02:51:28.741Z,23.90
2018-06-05T02:53:57.741Z,24.00
2018-06-05T02:58:55.438Z,23.90
2018-06-05T03:01:24.413Z,24.00
2018-06-05T03:03:53.385Z,23.90
2018-06-05T03:06:22.684Z,24.00
2018-06-05T03:08:51.664Z,23.90
2018-06-05T03:11:20.645Z,23.90
2018-06-05T03:13:49.609Z,23.90
2018-06-05T03:16:18.592Z,23.90
2018-06-05T03:18:47.549Z,23.90
2018-06-05T03:21:16.553Z,23.90
2018-06-05T03:28:43.067Z,23.90
2018-06-05T03:31:12.037Z,23.90
2018-06-05T03:33:41.213Z,23.90
2018-06-05T03:36:10.169Z,23.90
2018-06-05T03:38:39.149Z,23.90
2018-06-05T03:43:36.967Z,23.90
2018-06-05T03:46:05.937Z,23.90
2018-06-05T03:48:34.908Z,23.90
2018-06-05T03:51:03.905Z,23.90
2018-06-05T03:56:01.549Z,23.90
2018-06-05T03:58:30.817Z,23.90
2018-06-05T04:03:28.484Z,23.90
2018-06-05T04:05:57.459Z,23.90
2018-06-05T04:08:26.437Z,23.90
2018-06-05T04:10:55.416Z,23.90
2018-06-05T04:13:24.388Z,23.90
2018-06-05T04:15:53.364Z,23.90
2018-06-05T04:18:22.351Z,23.90
2018-06-05T04:20:51.518Z,23.90
2018-06-05T04:23:20.480Z,23.80
2018-06-05T04:25:49.656Z,23.90
2018-06-05T04:28:18.817Z,23.90
2018-06-05T04:33:16.489Z,23.90
2018-06-05T04:35:45.458Z,23.90
2018-06-05T04:38:14.664Z,23.90
2018-06-05T04:40:43.633Z,23.90
2018-06-05T04:43:12.599Z,23.90
2018-06-05T04:45:41.597Z,23.90
2018-06-05T04:48:10.580Z,23.90
2018-06-05T04:50:39.560Z,23.90
2018-06-05T04:55:37.433Z,23.90
2018-06-05T04:58:06.410Z,23.90
2018-06-05T05:00:35.380Z,23.90
2018-06-05T05:03:04.341Z,23.90
2018-06-05T05:05:33.365Z,23.90
2018-06-05T05:08:02.337Z,23.90
2018-06-05T05:10:31.325Z,23.90
2018-06-05T05:13:00.309Z,23.90
2018-06-05T05:17:57.968Z,23.90
2018-06-05T05:20:27.237Z,23.90
2018-06-05T05:25:24.884Z,23.90
2018-06-05T05:27:53.861Z,24.00
2018-06-05T05:30:22.824Z,23.90
2018-06-05T05:32:51.800Z,24.00
2018-06-05T05:35:20.761Z,23.90
2018-06-05T05:37:49.957Z,24.00
2018-06-05T05:40:19.128Z,24.00
2018-06-05T05:45:17.309Z,24.00
2018-06-05T05:47:46.277Z,24.00
2018-06-05T05:50:15.240Z,24.00
2018-06-05T05:55:12.896Z,24.00
2018-06-05T05:57:41.844Z,24.00
2018-06-05T06:00:11.040Z,24.00
2018-06-05T06:02:40.230Z,24.00
2018-06-05T06:05:09.345Z,24.00
2018-06-05T06:07:38.322Z,24.00
2018-06-05T06:10:07.300Z,24.00
2018-06-05T06:12:36.292Z,24.00
2018-06-05T06:15:05.262Z,24.10
2018-06-05T06:17:34.223Z,24.00
2018-06-05T06:20:03.225Z,24.00
2018-06-05T06:25:00.941Z,24.10
2018-06-05T06:27:29.906Z,24.00
2018-06-05T06:29:58.873Z,24.00
2018-06-05T06:32:27.872Z,24.00
2018-06-05T06:37:26.222Z,24.00
2018-06-05T06:39:55.222Z,24.00
2018-06-05T06:42:24.172Z,24.10
2018-06-05T06:44:53.220Z,24.10
2018-06-05T06:47:22.217Z,24.10
2018-06-05T06:49:51.201Z,24.00
2018-06-05T06:52:20.177Z,24.10
2018-06-05T06:54:49.186Z,24.10
2018-06-05T06:57:18.355Z,24.10
2018-06-05T06:59:47.312Z,24.10
2018-06-05T07:02:16.285Z,24.10
2018-06-05T07:04:45.225Z,24.10
2018-06-05T07:07:14.173Z,24.10
2018-06-05T07:09:43.137Z,24.10
2018-06-05T07:12:12.132Z,24.10
2018-06-05T07:17:09.936Z,24.10
2018-06-05T07:19:38.912Z,24.10
2018-06-05T07:22:07.886Z,24.10
2018-06-05T07:24:36.862Z,24.20
2018-06-05T07:27:05.825Z,24.10
2018-06-05T07:29:34.770Z,24.20
2018-06-05T07:32:03.733Z,24.20
2018-06-05T07:34:32.710Z,24.20
2018-06-05T07:37:01.662Z,24.20
2018-06-05T07:39:30.662Z,24.20
2018-06-05T07:41:59.613Z,24.20
2018-06-05T07:44:28.571Z,24.30
2018-06-05T07:46:57.590Z,24.30
2018-06-05T07:49:26.561Z,24.30
2018-06-05T07:51:55.509Z,24.30
2018-06-05T07:54:24.501Z,24.30
2018-06-05T07:56:53.493Z,24.30
2018-06-05T07:59:22.473Z,24.30
2018-06-05T08:01:51.437Z,24.30
2018-06-05T08:04:20.463Z,24.30
2018-06-05T08:06:49.581Z,24.30
2018-06-05T08:11:47.250Z,24.30
2018-06-05T08:14:16.213Z,24.40
2018-06-05T08:16:45.801Z,24.30
2018-06-05T08:19:14.797Z,24.40
2018-06-05T08:21:43.777Z,24.40
2018-06-05T08:24:13.173Z,24.40
2018-06-05T08:29:19.312Z,24.40
2018-06-05T08:31:48.345Z,24.40
2018-06-05T08:34:17.302Z,24.40
2018-06-05T08:36:46.287Z,24.40
2018-06-05T08:39:15.289Z,24.40
2018-06-05T08:41:44.270Z,24.40
2018-06-05T08:44:13.237Z,24.40
2018-06-05T08:46:42.199Z,24.40
2018-06-05T08:49:11.165Z,24.40
2018-06-05T08:51:40.142Z,24.40
2018-06-05T08:54:09.184Z,24.40
2018-06-05T08:56:38.293Z,24.40
2018-06-05T08:59:07.240Z,24.40
2018-06-05T09:01:36.193Z,24.40
2018-06-05T09:04:05.188Z,24.40
2018-06-05T09:06:34.153Z,24.50
2018-06-05T09:09:04.072Z,24.50
2018-06-05T09:11:33.061Z,24.50
2018-06-05T09:14:02.019Z,24.50
2018-06-05T09:16:31.017Z,24.50
2018-06-05T09:19:00.000Z,24.50
2018-06-05T09:21:28.992Z,24.50
2018-06-05T09:23:57.984Z,24.50
2018-06-05T09:26:26.972Z,24.60
2018-06-05T09:28:55.951Z,24.50
2018-06-05T09:31:25.101Z,24.50
2018-06-05T09:33:54.070Z,24.50
2018-06-05T09:36:23.037Z,24.60
2018-06-05T09:38:52.001Z,24.60
2018-06-05T09:41:20.977Z,24.60
2018-06-05T09:43:49.974Z,24.60
2018-06-05T09:46:18.940Z,24.60
2018-06-05T09:48:47.925Z,24.60
2018-06-05T09:51:16.920Z,24.60
2018-06-05T09:53:46.005Z,24.60
2018-06-05T09:56:14.993Z,24.60
2018-06-05T09:58:44.186Z,24.60
2018-06-05T10:01:13.161Z,24.60
2018-06-05T10:03:42.149Z,24.60
2018-06-05T10:06:11.117Z,24.60
2018-06-05T10:08:40.537Z,24.70
2018-06-05T10:11:09.518Z,24.70
2018-06-05T10:13:38.488Z,24.70
2018-06-05T10:16:07.445Z,24.70
2018-06-05T10:18:36.424Z,24.70
2018-06-05T10:21:05.418Z,24.70
2018-06-05T10:23:34.381Z,24.80
2018-06-05T10:26:03.367Z,24.80
2018-06-05T10:28:32.341Z,24.80
2018-06-05T10:31:01.335Z,24.80
2018-06-05T10:33:30.511Z,24.80
2018-06-05T10:35:59.488Z,24.80
2018-06-05T10:38:28.484Z,24.80
2018-06-05T10:40:57.466Z,24.80
2018-06-05T10:43:26.479Z,24.80
2018-06-05T10:45:55.456Z,24.80
2018-06-05T10:48:24.430Z,24.90
2018-06-05T10:50:53.399Z,24.90
2018-06-05T10:53:22.357Z,24.80
2018-06-05T10:55:51.333Z,24.90
2018-06-05T10:58:20.509Z,24.90
2018-06-05T11:00:49.670Z,24.90
2018-06-05T11:05:47.361Z,25.00
2018-06-05T11:08:16.329Z,25.00
2018-06-05T11:10:45.306Z,25.00
2018-06-05T11:13:14.305Z,25.00
2018-06-05T11:18:11.960Z,25.00
2018-06-05T11:20:40.952Z,25.00
2018-06-05T11:23:10.097Z,25.00
2018-06-05T11:25:39.113Z,25.00
2018-06-05T11:28:08.093Z,25.00
2018-06-05T11:30:37.077Z,25.00
2018-06-05T11:33:06.052Z,25.00
2018-06-05T11:35:35.025Z,25.00
2018-06-05T11:38:04.258Z,25.10
2018-06-05T11:40:33.269Z,25.10
2018-06-05T11:43:02.237Z,25.10
2018-06-05T11:45:31.211Z,25.10
2018-06-05T11:48:00.375Z,25.10
2018-06-05T11:50:29.349Z,25.20
2018-06-05T11:52:58.320Z,25.20
2018-06-05T11:55:27.289Z,25.20
2018-06-05T11:57:56.281Z,25.20
2018-06-05T12:00:25.288Z,25.20
2018-06-05T12:02:54.257Z,25.30
2018-06-05T12:05:23.235Z,25.20
2018-06-05T12:07:52.206Z,25.30
2018-06-05T12:10:21.481Z,25.30
2018-06-05T12:12:50.461Z,25.30
2018-06-05T12:15:19.457Z,25.30
2018-06-05T12:17:48.474Z,25.30
2018-06-05T12:20:17.626Z,25.30
2018-06-05T12:22:46.616Z,25.40
2018-06-05T12:25:15.593Z,25.40
2018-06-05T12:30:13.273Z,25.40
2018-06-05T12:32:42.256Z,25.40
2018-06-05T12:35:11.401Z,25.40
2018-06-05T12:37:40.486Z,25.50
2018-06-05T12:40:09.456Z,25.50
2018-06-05T12:42:38.462Z,25.50
2018-06-05T12:45:07.820Z,25.50
2018-06-05T12:50:05.562Z,25.60
2018-06-05T12:52:34.565Z,25.60
2018-06-05T12:55:03.558Z,25.60
2018-06-05T12:57:32.542Z,25.60
2018-06-05T13:00:01.523Z,25.70
2018-06-05T13:02:30.513Z,25.70
2018-06-05T13:04:59.486Z,25.70
2018-06-05T13:07:28.622Z,25.70
2018-06-05T13:09:57.797Z,25.70
2018-06-05T13:12:26.901Z,25.80
2018-06-05T13:14:55.872Z,25.70
2018-06-05T13:17:24.914Z,25.80
2018-06-05T13:19:54.191Z,25.80
2018-06-05T13:24:51.866Z,25.80
2018-06-05T13:27:20.872Z,25.90
2018-06-05T13:29:49.887Z,25.90
2018-06-05T13:32:19.008Z,25.90
2018-06-05T13:34:48.100Z,25.90
2018-06-05T13:37:17.230Z,26.00
2018-06-05T13:39:46.314Z,25.90
2018-06-05T13:42:15.312Z,26.00
2018-06-05T13:44:44.482Z,26.00
2018-06-05T13:47:13.449Z,26.00
2018-06-05T13:49:42.460Z,26.10
2018-06-05T13:52:11.434Z,26.10
2018-06-05T13:54:40.592Z,26.10
2018-06-05T13:57:09.571Z,26.10
2018-06-05T13:59:38.566Z,26.10
2018-06-05T14:02:07.541Z,26.10
2018-06-05T14:04:36.681Z,26.20
2018-06-05T14:09:34.341Z,26.20
2018-06-05T14:12:03.351Z,26.20
2018-06-05T14:14:32.725Z,26.20
2018-06-05T14:17:02.050Z,26.20
2018-06-05T14:19:31.016Z,26.20
2018-06-05T14:21:59.996Z,26.20
2018-06-05T14:24:29.009Z,26.10
2018-06-05T14:26:57.984Z,26.10
2018-06-05T14:29:26.970Z,26.20
2018-06-05T14:31:55.989Z,26.10
2018-06-05T14:34:25.161Z,26.10
2018-06-05T14:36:54.174Z,26.10
2018-06-05T14:39:23.137Z,26.10
2018-06-05T14:41:52.105Z,26.10
2018-06-05T14:44:21.085Z,26.00
2018-06-05T14:46:50.345Z,26.10
2018-06-05T14:49:19.332Z,26.10
2018-06-05T14:51:48.281Z,26.10
2018-06-05T14:54:17.235Z,26.00
2018-06-05T14:56:46.234Z,26.00
2018-06-05T14:59:15.193Z,26.00
2018-06-05T15:01:44.188Z,26.00
2018-06-05T15:04:13.633Z,26.00
2018-06-05T15:06:42.657Z,25.90
2018-06-05T15:09:11.786Z,25.90
2018-06-05T15:11:40.768Z,26.00
2018-06-05T15:14:09.790Z,25.90
2018-06-05T15:16:38.749Z,25.90
2018-06-05T15:19:07.717Z,25.90
2018-06-05T15:21:36.673Z,25.90
2018-06-05T15:26:34.406Z,25.90
2018-06-05T15:29:03.572Z,25.80
2018-06-05T15:31:32.528Z,25.80
2018-06-05T15:34:01.609Z,25.80
2018-06-05T15:36:30.729Z,25.80
2018-06-05T15:41:28.842Z,25.80
2018-06-05T15:43:57.813Z,25.80
2018-06-05T15:46:26.962Z,25.80
2018-06-05T15:48:56.473Z,25.70
2018-06-05T15:53:54.122Z,25.80
2018-06-05T15:56:23.097Z,25.80
2018-06-05T15:58:52.058Z,25.80
2018-06-05T16:01:21.049Z,25.80
2018-06-05T16:03:50.013Z,25.90
2018-06-05T16:06:19.037Z,26.00
2018-06-05T16:08:48.025Z,26.00
2018-06-05T16:13:45.717Z,26.10
2018-06-05T16:16:14.674Z,26.10
2018-06-05T16:18:43.655Z,26.10
2018-06-05T16:21:12.634Z,26.20
2018-06-05T16:23:41.620Z,26.10
2018-06-05T16:26:10.645Z,26.20
2018-06-05T16:28:39.635Z,26.20
2018-06-05T16:31:08.635Z,26.20
2018-06-05T16:33:37.621Z,26.10
2018-06-05T16:36:06.621Z,26.10
2018-06-05T16:38:35.601Z,26.10
2018-06-05T16:41:04.581Z,26.00
2018-06-05T16:43:33.577Z,25.90
2018-06-05T16:46:02.540Z,25.90
2018-06-05T16:48:31.521Z,25.80
2018-06-05T16:51:00.544Z,25.80
2018-06-05T16:53:29.510Z,25.80
2018-06-05T16:55:58.489Z,25.80
2018-06-05T16:58:27.522Z,25.80
2018-06-05T17:00:56.657Z,25.70
2018-06-05T17:03:25.633Z,25.70
2018-06-05T17:08:23.289Z,25.70
2018-06-05T17:10:52.561Z,25.60
2018-06-05T17:15:50.604Z,25.60
2018-06-05T17:20:48.399Z,25.60
2018-06-05T17:23:17.373Z,25.60
2018-06-05T17:25:46.518Z,25.60
2018-06-05T17:28:15.499Z,25.50
2018-06-05T17:30:44.473Z,25.60
2018-06-05T17:33:13.437Z,25.50
2018-06-05T17:35:42.437Z,25.50
2018-06-05T17:38:11.421Z,25.50
2018-06-05T17:40:40.392Z,25.50
2018-06-05T17:43:09.365Z,25.50
2018-06-05T17:45:38.387Z,25.50
2018-06-05T17:48:07.513Z,25.40
2018-06-05T17:50:36.500Z,25.40
2018-06-05T17:53:05.481Z,25.40
2018-06-05T17:55:34.453Z,25.40
2018-06-05T17:58:03.417Z,25.40
2018-06-05T18:00:32.414Z,25.40
2018-06-05T18:03:01.416Z,25.30
2018-06-05T18:05:30.388Z,25.40
2018-06-05T18:07:59.394Z,25.40
2018-06-05T18:10:28.550Z,25.40
2018-06-05T18:15:26.493Z,25.30
2018-06-05T18:17:55.537Z,25.30
2018-06-05T18:20:24.531Z,25.30
2018-06-05T18:22:53.525Z,25.30
2018-06-05T18:25:22.761Z,25.30
2018-06-05T18:27:51.761Z,25.30
2018-06-05T18:30:20.768Z,25.30
2018-06-05T18:32:49.770Z,25.30
2018-06-05T18:35:18.757Z,25.30
2018-06-05T18:37:47.713Z,25.30
2018-06-05T18:40:16.882Z,25.20
2018-06-05T18:42:45.866Z,25.20
2018-06-05T18:45:14.848Z,25.30
2018-06-05T18:47:43.807Z,25.20
2018-06-05T18:52:41.437Z,25.20
2018-06-05T18:55:10.589Z,25.20
2018-06-05T18:57:39.537Z,25.20
2018-06-05T19:00:08.555Z,25.20
2018-06-05T19:02:37.680Z,25.20
2018-06-05T19:05:06.685Z,25.20
2018-06-05T19:07:35.657Z,25.20
2018-06-05T19:12:33.320Z,25.10
2018-06-05T19:15:02.286Z,25.10
2018-06-05T19:17:31.269Z,25.10
2018-06-05T19:20:00.401Z,25.10
2018-06-05T19:22:29.381Z,25.10
2018-06-05T19:24:58.349Z,25.10
2018-06-05T19:27:27.317Z,25.10
2018-06-05T19:29:56.493Z,25.10
2018-06-05T19:32:25.619Z,25.00
2018-06-05T19:37:23.281Z,25.00
2018-06-05T19:39:52.277Z,25.00
2018-06-05T19:42:21.409Z,25.00
2018-06-05T19:44:50.592Z,25.00
2018-06-05T19:49:48.290Z,25.00
2018-06-05T19:52:17.265Z,25.00
2018-06-05T19:54:46.384Z,25.00
2018-06-05T19:59:44.186Z,25.00
2018-06-05T20:02:13.181Z,25.00
2018-06-05T20:04:42.154Z,25.00
2018-06-05T20:09:39.770Z,25.00
2018-06-05T20:14:37.404Z,24.90
2018-06-05T20:17:06.361Z,25.00
2018-06-05T20:19:35.334Z,24.90
2018-06-05T20:22:04.548Z,24.90
2018-06-05T20:24:33.709Z,24.90
2018-06-05T20:29:31.415Z,24.90
2018-06-05T20:32:00.382Z,24.90
2018-06-05T20:34:29.347Z,24.90
2018-06-05T20:36:58.328Z,24.90
2018-06-05T20:39:27.304Z,24.90
2018-06-05T20:41:56.264Z,24.90
2018-06-05T20:44:25.245Z,24.80
2018-06-05T20:46:54.216Z,24.80
2018-06-05T20:49:23.461Z,24.80
2018-06-05T20:51:52.468Z,24.80
2018-06-05T20:54:21.665Z,24.80
2018-06-05T20:56:50.822Z,24.80
2018-06-05T20:59:19.797Z,24.80
2018-06-05T21:01:48.749Z,24.80
2018-06-05T21:04:17.728Z,24.80
2018-06-05T21:06:46.709Z,24.80
2018-06-05T21:09:15.705Z,24.80
2018-06-05T21:11:44.731Z,24.80
2018-06-05T21:14:13.865Z,24.80
2018-06-05T21:16:42.837Z,24.80
2018-06-05T21:19:12.061Z,24.80
2018-06-05T21:21:41.044Z,24.80
2018-06-05T21:24:10.208Z,24.80
2018-06-05T21:29:08.040Z,24.80
2018-06-05T21:31:37.021Z,24.80
2018-06-05T21:34:06.014Z,24.80
2018-06-05T21:36:35.016Z,24.80
2018-06-05T21:39:06.571Z,24.80
2018-06-05T21:41:35.558Z,24.80
2018-06-05T21:44:05.297Z,24.80
2018-06-05T21:46:34.283Z,24.80
2018-06-05T21:49:03.273Z,24.80
2018-06-05T21:51:32.445Z,24.80
2018-06-05T21:56:30.187Z,24.70
2018-06-05T21:58:59.377Z,24.70
2018-06-05T22:01:28.570Z,24.70
2018-06-05T22:03:57.541Z,24.70
2018-06-05T22:06:26.525Z,24.70
2018-06-05T22:08:55.501Z,24.70
2018-06-05T22:11:24.662Z,24.70
2018-06-05T22:16:22.300Z,24.70
2018-06-05T22:18:51.273Z,24.70
2018-06-05T22:21:20.433Z,24.70
2018-06-05T22:26:18.078Z,24.70
2018-06-05T22:28:47.405Z,24.60
2018-06-05T22:31:16.537Z,24.70
2018-06-05T22:36:15.854Z,24.60
2018-06-05T22:38:44.857Z,24.70
2018-06-05T22:41:13.833Z,24.60
2018-06-05T22:43:42.801Z,24.60
2018-06-05T22:46:11.781Z,24.60
2018-06-05T22:48:40.884Z,24.60
2018-06-05T22:53:38.556Z,24.60
2018-06-05T22:56:07.930Z,24.60
2018-06-05T22:58:36.958Z,24.60
2018-06-05T23:01:06.082Z,24.60
2018-06-05T23:03:35.080Z,24.60
2018-06-05T23:06:04.226Z,24.60
2018-06-05T23:11:01.876Z,24.60
2018-06-05T23:13:30.881Z,24.60
2018-06-05T23:16:00.025Z,24.60
2018-06-05T23:18:28.997Z,24.60
2018-06-05T23:20:57.980Z,24.60
2018-06-05T23:23:26.964Z,24.50
2018-06-05T23:25:55.934Z,24.50
2018-06-05T23:28:24.942Z,24.60
2018-06-05T23:30:53.925Z,24.50
2018-06-05T23:33:22.885Z,24.60
2018-06-05T23:35:51.861Z,24.50
2018-06-05T23:38:20.822Z,24.50
2018-06-05T23:40:49.796Z,24.50
2018-06-05T23:43:18.785Z,24.50
2018-06-05T23:45:47.772Z,24.50
2018-06-05T23:48:16.766Z,24.50
2018-06-05T23:50:45.730Z,24.50
2018-06-05T23:55:43.413Z,24.50
2018-06-05T23:58:12.384Z,24.50
